sensor_id;sensor_type;location;lat;lon;timestamp;temperature;humidity
55785;DHT22;41709;52.536;5.688;2023-02-28T00:00:49;3.70;84.70
55785;DHT22;41709;52.536;5.688;2023-02-28T00:03:15;3.70;84.90
55785;DHT22;41709;52.536;5.688;2023-02-28T00:05:40;3.70;85.10
55785;DHT22;41709;52.536;5.688;2023-02-28T00:08:07;3.70;85.20
55785;DHT22;41709;52.536;5.688;2023-02-28T00:10:32;3.70;85.40
55785;DHT22;41709;52.536;5.688;2023-02-28T00:13:05;3.60;85.60
55785;DHT22;41709;52.536;5.688;2023-02-28T00:15:32;3.60;85.80
55785;DHT22;41709;52.536;5.688;2023-02-28T00:17:58;3.60;86.10
55785;DHT22;41709;52.536;5.688;2023-02-28T00:20:24;3.60;86.20
55785;DHT22;41709;52.536;5.688;2023-02-28T00:22:52;3.50;86.40
55785;DHT22;41709;52.536;5.688;2023-02-28T00:25:21;3.50;86.60
55785;DHT22;41709;52.536;5.688;2023-02-28T00:27:48;3.50;86.80
55785;DHT22;41709;52.536;5.688;2023-02-28T00:30:22;3.50;87.00
55785;DHT22;41709;52.536;5.688;2023-02-28T00:32:48;3.50;87.20
55785;DHT22;41709;52.536;5.688;2023-02-28T00:35:14;3.50;87.40
55785;DHT22;41709;52.536;5.688;2023-02-28T00:37:40;3.50;87.50
55785;DHT22;41709;52.536;5.688;2023-02-28T00:40:06;3.60;87.60
55785;DHT22;41709;52.536;5.688;2023-02-28T00:42:32;3.60;87.70
55785;DHT22;41709;52.536;5.688;2023-02-28T00:44:58;3.60;87.80
55785;DHT22;41709;52.536;5.688;2023-02-28T00:47:24;3.60;87.80
55785;DHT22;41709;52.536;5.688;2023-02-28T00:49:49;3.70;87.90
55785;DHT22;41709;52.536;5.688;2023-02-28T00:52:15;3.70;87.90
55785;DHT22;41709;52.536;5.688;2023-02-28T00:54:40;3.70;88.00
55785;DHT22;41709;52.536;5.688;2023-02-28T00:57:06;3.70;88.00
55785;DHT22;41709;52.536;5.688;2023-02-28T00:59:31;3.70;88.10
55785;DHT22;41709;52.536;5.688;2023-02-28T01:01:57;3.70;88.10
55785;DHT22;41709;52.536;5.688;2023-02-28T01:04:23;3.70;88.10
55785;DHT22;41709;52.536;5.688;2023-02-28T01:06:48;3.80;88.10
55785;DHT22;41709;52.536;5.688;2023-02-28T01:09:14;3.80;88.10
55785;DHT22;41709;52.536;5.688;2023-02-28T01:11:39;3.70;88.10
55785;DHT22;41709;52.536;5.688;2023-02-28T01:14:07;3.80;88.10
55785;DHT22;41709;52.536;5.688;2023-02-28T01:16:32;3.80;88.10
55785;DHT22;41709;52.536;5.688;2023-02-28T01:18:58;3.80;88.00
55785;DHT22;41709;52.536;5.688;2023-02-28T01:21:23;3.80;87.90
55785;DHT22;41709;52.536;5.688;2023-02-28T01:23:49;3.90;87.90
55785;DHT22;41709;52.536;5.688;2023-02-28T01:26:18;3.90;87.80
55785;DHT22;41709;52.536;5.688;2023-02-28T01:28:44;3.90;87.70
55785;DHT22;41709;52.536;5.688;2023-02-28T01:31:10;4.00;87.70
55785;DHT22;41709;52.536;5.688;2023-02-28T01:33:36;4.00;87.50
55785;DHT22;41709;52.536;5.688;2023-02-28T01:36:08;4.10;87.40
55785;DHT22;41709;52.536;5.688;2023-02-28T01:38:34;4.10;87.20
55785;DHT22;41709;52.536;5.688;2023-02-28T01:41:00;4.20;87.10
55785;DHT22;41709;52.536;5.688;2023-02-28T01:43:31;4.20;87.10
55785;DHT22;41709;52.536;5.688;2023-02-28T01:45:58;4.20;86.90
55785;DHT22;41709;52.536;5.688;2023-02-28T01:48:33;4.20;86.90
55785;DHT22;41709;52.536;5.688;2023-02-28T01:51:05;4.20;86.90
55785;DHT22;41709;52.536;5.688;2023-02-28T01:53:39;4.30;86.90
55785;DHT22;41709;52.536;5.688;2023-02-28T01:56:08;4.30;86.80
55785;DHT22;41709;52.536;5.688;2023-02-28T01:58:36;4.30;86.70
55785;DHT22;41709;52.536;5.688;2023-02-28T02:01:02;4.30;86.70
55785;DHT22;41709;52.536;5.688;2023-02-28T02:03:29;4.40;86.70
55785;DHT22;41709;52.536;5.688;2023-02-28T02:05:55;4.40;86.60
55785;DHT22;41709;52.536;5.688;2023-02-28T02:08:26;4.40;86.50
55785;DHT22;41709;52.536;5.688;2023-02-28T02:10:59;4.50;86.30
55785;DHT22;41709;52.536;5.688;2023-02-28T02:16:40;4.50;87.00
55785;DHT22;41709;52.536;5.688;2023-02-28T02:22:15;4.60;85.90
55785;DHT22;41709;52.536;5.688;2023-02-28T02:27:48;4.70;85.60
55785;DHT22;41709;52.536;5.688;2023-02-28T02:30:37;4.70;85.50
55785;DHT22;41709;52.536;5.688;2023-02-28T02:36:25;4.70;85.30
55785;DHT22;41709;52.536;5.688;2023-02-28T02:38:55;4.70;85.10
55785;DHT22;41709;52.536;5.688;2023-02-28T02:44:21;4.80;85.00
55785;DHT22;41709;52.536;5.688;2023-02-28T02:46:52;4.80;85.00
55785;DHT22;41709;52.536;5.688;2023-02-28T02:49:23;4.80;84.90
55785;DHT22;41709;52.536;5.688;2023-02-28T02:51:49;4.80;84.80
55785;DHT22;41709;52.536;5.688;2023-02-28T02:54:21;4.80;84.70
55785;DHT22;41709;52.536;5.688;2023-02-28T02:56:49;4.90;84.70
55785;DHT22;41709;52.536;5.688;2023-02-28T02:59:18;4.80;84.60
55785;DHT22;41709;52.536;5.688;2023-02-28T03:01:48;4.80;84.70
55785;DHT22;41709;52.536;5.688;2023-02-28T03:04:23;4.80;84.80
55785;DHT22;41709;52.536;5.688;2023-02-28T03:06:51;4.80;85.00
55785;DHT22;41709;52.536;5.688;2023-02-28T03:09:21;4.70;85.00
55785;DHT22;41709;52.536;5.688;2023-02-28T03:11:47;4.80;85.30
55785;DHT22;41709;52.536;5.688;2023-02-28T03:19:56;4.70;85.70
55785;DHT22;41709;52.536;5.688;2023-02-28T03:27:52;4.60;85.70
55785;DHT22;41709;52.536;5.688;2023-02-28T03:30:42;4.60;85.90
55785;DHT22;41709;52.536;5.688;2023-02-28T03:33:19;4.50;85.90
55785;DHT22;41709;52.536;5.688;2023-02-28T03:36:01;4.40;86.10
55785;DHT22;41709;52.536;5.688;2023-02-28T03:38:41;4.30;86.20
55785;DHT22;41709;52.536;5.688;2023-02-28T03:41:19;4.30;86.40
55785;DHT22;41709;52.536;5.688;2023-02-28T03:43:56;4.30;86.40
55785;DHT22;41709;52.536;5.688;2023-02-28T03:46:26;4.30;87.10
55785;DHT22;41709;52.536;5.688;2023-02-28T03:49:16;4.20;86.50
55785;DHT22;41709;52.536;5.688;2023-02-28T03:51:43;4.20;86.60
55785;DHT22;41709;52.536;5.688;2023-02-28T03:54:19;4.20;86.60
55785;DHT22;41709;52.536;5.688;2023-02-28T03:57:02;4.20;86.50
55785;DHT22;41709;52.536;5.688;2023-02-28T03:59:46;4.20;87.30
55785;DHT22;41709;52.536;5.688;2023-02-28T04:02:13;4.20;86.60
55785;DHT22;41709;52.536;5.688;2023-02-28T04:04:38;4.30;86.60
55785;DHT22;41709;52.536;5.688;2023-02-28T04:07:11;4.30;86.80
55785;DHT22;41709;52.536;5.688;2023-02-28T04:09:37;4.30;86.70
55785;DHT22;41709;52.536;5.688;2023-02-28T04:12:03;4.30;86.60
55785;DHT22;41709;52.536;5.688;2023-02-28T04:14:28;4.30;86.50
55785;DHT22;41709;52.536;5.688;2023-02-28T04:16:54;4.30;87.20
55785;DHT22;41709;52.536;5.688;2023-02-28T04:19:20;4.40;86.40
55785;DHT22;41709;52.536;5.688;2023-02-28T04:21:54;4.40;86.20
55785;DHT22;41709;52.536;5.688;2023-02-28T04:24:22;4.40;86.10
55785;DHT22;41709;52.536;5.688;2023-02-28T04:26:50;4.40;86.00
55785;DHT22;41709;52.536;5.688;2023-02-28T04:29:25;4.40;86.00
55785;DHT22;41709;52.536;5.688;2023-02-28T04:31:51;4.40;86.80
55785;DHT22;41709;52.536;5.688;2023-02-28T04:34:18;4.40;86.20
55785;DHT22;41709;52.536;5.688;2023-02-28T04:36:45;4.40;86.20
55785;DHT22;41709;52.536;5.688;2023-02-28T04:39:11;4.40;86.20
55785;DHT22;41709;52.536;5.688;2023-02-28T04:41:37;4.40;85.90
55785;DHT22;41709;52.536;5.688;2023-02-28T04:44:03;4.40;85.80
55785;DHT22;41709;52.536;5.688;2023-02-28T04:46:28;4.40;85.70
55785;DHT22;41709;52.536;5.688;2023-02-28T04:48:54;4.40;85.60
55785;DHT22;41709;52.536;5.688;2023-02-28T04:51:20;4.30;85.40
55785;DHT22;41709;52.536;5.688;2023-02-28T04:53:46;4.30;85.40
55785;DHT22;41709;52.536;5.688;2023-02-28T04:56:14;4.30;85.30
55785;DHT22;41709;52.536;5.688;2023-02-28T04:58:40;4.30;85.40
55785;DHT22;41709;52.536;5.688;2023-02-28T05:01:24;4.30;85.50
55785;DHT22;41709;52.536;5.688;2023-02-28T05:03:51;4.30;85.50
55785;DHT22;41709;52.536;5.688;2023-02-28T05:06:18;4.30;85.40
55785;DHT22;41709;52.536;5.688;2023-02-28T05:08:45;4.30;85.40
55785;DHT22;41709;52.536;5.688;2023-02-28T05:11:26;4.20;85.40
55785;DHT22;41709;52.536;5.688;2023-02-28T05:13:52;4.20;85.40
55785;DHT22;41709;52.536;5.688;2023-02-28T05:16:19;4.20;85.60
55785;DHT22;41709;52.536;5.688;2023-02-28T05:18:45;4.20;85.70
55785;DHT22;41709;52.536;5.688;2023-02-28T05:21:35;4.20;85.90
55785;DHT22;41709;52.536;5.688;2023-02-28T05:24:03;4.20;86.00
55785;DHT22;41709;52.536;5.688;2023-02-28T05:26:30;4.10;85.90
55785;DHT22;41709;52.536;5.688;2023-02-28T05:28:57;4.10;86.00
55785;DHT22;41709;52.536;5.688;2023-02-28T05:31:23;4.10;86.10
55785;DHT22;41709;52.536;5.688;2023-02-28T05:33:48;4.10;86.10
55785;DHT22;41709;52.536;5.688;2023-02-28T05:36:14;4.10;86.10
55785;DHT22;41709;52.536;5.688;2023-02-28T05:38:40;4.10;86.00
55785;DHT22;41709;52.536;5.688;2023-02-28T05:41:10;4.00;85.90
55785;DHT22;41709;52.536;5.688;2023-02-28T05:43:36;4.00;86.00
55785;DHT22;41709;52.536;5.688;2023-02-28T05:46:06;4.00;86.00
55785;DHT22;41709;52.536;5.688;2023-02-28T05:48:34;4.00;85.90
55785;DHT22;41709;52.536;5.688;2023-02-28T05:51:00;3.90;85.70
55785;DHT22;41709;52.536;5.688;2023-02-28T05:53:26;3.90;85.50
55785;DHT22;41709;52.536;5.688;2023-02-28T05:55:51;3.90;85.40
55785;DHT22;41709;52.536;5.688;2023-02-28T05:58:17;3.90;85.30
55785;DHT22;41709;52.536;5.688;2023-02-28T06:00:43;3.90;85.20
55785;DHT22;41709;52.536;5.688;2023-02-28T06:03:08;3.80;85.00
55785;DHT22;41709;52.536;5.688;2023-02-28T06:05:34;3.80;84.70
55785;DHT22;41709;52.536;5.688;2023-02-28T06:07:59;3.90;84.60
55785;DHT22;41709;52.536;5.688;2023-02-28T06:10:25;3.70;84.60
55785;DHT22;41709;52.536;5.688;2023-02-28T06:12:50;3.70;84.60
55785;DHT22;41709;52.536;5.688;2023-02-28T06:15:16;3.70;84.50
55785;DHT22;41709;52.536;5.688;2023-02-28T06:17:43;3.60;84.60
55785;DHT22;41709;52.536;5.688;2023-02-28T06:20:11;3.60;84.70
55785;DHT22;41709;52.536;5.688;2023-02-28T06:22:38;3.60;84.70
55785;DHT22;41709;52.536;5.688;2023-02-28T06:25:05;3.50;84.60
55785;DHT22;41709;52.536;5.688;2023-02-28T06:27:32;3.50;84.50
55785;DHT22;41709;52.536;5.688;2023-02-28T06:29:58;3.50;84.30
55785;DHT22;41709;52.536;5.688;2023-02-28T06:32:24;3.40;84.50
55785;DHT22;41709;52.536;5.688;2023-02-28T06:34:50;3.40;84.60
55785;DHT22;41709;52.536;5.688;2023-02-28T06:37:16;3.40;84.80
55785;DHT22;41709;52.536;5.688;2023-02-28T06:39:42;3.40;84.90
55785;DHT22;41709;52.536;5.688;2023-02-28T06:42:07;3.30;85.00
55785;DHT22;41709;52.536;5.688;2023-02-28T06:44:33;3.30;85.20
55785;DHT22;41709;52.536;5.688;2023-02-28T06:47:00;3.30;85.30
55785;DHT22;41709;52.536;5.688;2023-02-28T06:49:27;3.20;85.30
55785;DHT22;41709;52.536;5.688;2023-02-28T06:51:54;3.20;85.40
55785;DHT22;41709;52.536;5.688;2023-02-28T06:54:19;3.20;85.40
55785;DHT22;41709;52.536;5.688;2023-02-28T06:56:45;3.20;85.50
55785;DHT22;41709;52.536;5.688;2023-02-28T06:59:12;3.10;85.50
55785;DHT22;41709;52.536;5.688;2023-02-28T07:01:38;3.10;85.50
55785;DHT22;41709;52.536;5.688;2023-02-28T07:04:05;3.10;85.90
55785;DHT22;41709;52.536;5.688;2023-02-28T07:06:31;3.10;86.50
55785;DHT22;41709;52.536;5.688;2023-02-28T07:08:57;3.10;86.20
55785;DHT22;41709;52.536;5.688;2023-02-28T07:11:24;3.10;86.20
55785;DHT22;41709;52.536;5.688;2023-02-28T07:13:54;3.10;86.30
55785;DHT22;41709;52.536;5.688;2023-02-28T07:16:21;3.00;86.50
55785;DHT22;41709;52.536;5.688;2023-02-28T07:18:47;3.00;86.60
55785;DHT22;41709;52.536;5.688;2023-02-28T07:21:13;2.90;86.70
55785;DHT22;41709;52.536;5.688;2023-02-28T07:23:39;2.90;87.10
55785;DHT22;41709;52.536;5.688;2023-02-28T07:26:12;2.80;87.30
55785;DHT22;41709;52.536;5.688;2023-02-28T07:28:40;2.80;87.40
55785;DHT22;41709;52.536;5.688;2023-02-28T07:31:08;2.80;87.70
55785;DHT22;41709;52.536;5.688;2023-02-28T07:33:33;2.80;88.00
55785;DHT22;41709;52.536;5.688;2023-02-28T07:36:04;2.70;88.20
55785;DHT22;41709;52.536;5.688;2023-02-28T07:38:30;2.70;88.40
55785;DHT22;41709;52.536;5.688;2023-02-28T07:40:55;2.70;88.60
55785;DHT22;41709;52.536;5.688;2023-02-28T07:43:21;2.70;88.80
55785;DHT22;41709;52.536;5.688;2023-02-28T07:45:46;2.70;89.10
55785;DHT22;41709;52.536;5.688;2023-02-28T07:48:12;2.60;89.40
55785;DHT22;41709;52.536;5.688;2023-02-28T07:50:37;2.60;89.70
55785;DHT22;41709;52.536;5.688;2023-02-28T07:53:03;2.60;89.90
55785;DHT22;41709;52.536;5.688;2023-02-28T07:55:29;2.60;90.00
55785;DHT22;41709;52.536;5.688;2023-02-28T07:57:56;2.70;90.00
55785;DHT22;41709;52.536;5.688;2023-02-28T08:00:22;2.70;90.00
55785;DHT22;41709;52.536;5.688;2023-02-28T08:02:48;2.70;90.00
55785;DHT22;41709;52.536;5.688;2023-02-28T08:05:14;2.80;90.00
55785;DHT22;41709;52.536;5.688;2023-02-28T08:07:39;2.80;90.10
55785;DHT22;41709;52.536;5.688;2023-02-28T08:10:05;2.80;90.00
55785;DHT22;41709;52.536;5.688;2023-02-28T08:12:31;2.80;90.00
55785;DHT22;41709;52.536;5.688;2023-02-28T08:14:56;2.90;90.00
55785;DHT22;41709;52.536;5.688;2023-02-28T08:17:22;2.90;90.00
55785;DHT22;41709;52.536;5.688;2023-02-28T08:19:48;2.90;90.00
55785;DHT22;41709;52.536;5.688;2023-02-28T08:22:13;3.00;90.10
55785;DHT22;41709;52.536;5.688;2023-02-28T08:24:41;3.00;90.10
55785;DHT22;41709;52.536;5.688;2023-02-28T08:27:07;3.10;90.10
55785;DHT22;41709;52.536;5.688;2023-02-28T08:29:32;3.10;90.10
55785;DHT22;41709;52.536;5.688;2023-02-28T08:31:58;3.10;90.10
55785;DHT22;41709;52.536;5.688;2023-02-28T08:34:24;3.20;90.10
55785;DHT22;41709;52.536;5.688;2023-02-28T08:36:49;3.20;90.10
55785;DHT22;41709;52.536;5.688;2023-02-28T08:39:15;3.20;90.10
55785;DHT22;41709;52.536;5.688;2023-02-28T08:41:42;3.30;90.40
55785;DHT22;41709;52.536;5.688;2023-02-28T08:44:07;3.30;90.00
55785;DHT22;41709;52.536;5.688;2023-02-28T08:46:33;3.40;90.00
55785;DHT22;41709;52.536;5.688;2023-02-28T08:48:58;3.40;89.70
55785;DHT22;41709;52.536;5.688;2023-02-28T08:51:27;3.40;89.60
55785;DHT22;41709;52.536;5.688;2023-02-28T08:54:00;3.50;89.80
55785;DHT22;41709;52.536;5.688;2023-02-28T08:56:27;3.50;89.80
55785;DHT22;41709;52.536;5.688;2023-02-28T08:58:55;3.60;90.00
55785;DHT22;41709;52.536;5.688;2023-02-28T09:01:24;3.60;90.00
55785;DHT22;41709;52.536;5.688;2023-02-28T09:03:50;3.70;90.00
55785;DHT22;41709;52.536;5.688;2023-02-28T09:06:17;3.80;89.90
55785;DHT22;41709;52.536;5.688;2023-02-28T09:08:43;3.80;89.80
55785;DHT22;41709;52.536;5.688;2023-02-28T09:11:10;3.90;89.60
55785;DHT22;41709;52.536;5.688;2023-02-28T09:13:36;3.90;89.50
55785;DHT22;41709;52.536;5.688;2023-02-28T09:16:03;3.90;89.30
55785;DHT22;41709;52.536;5.688;2023-02-28T09:18:29;4.00;89.30
55785;DHT22;41709;52.536;5.688;2023-02-28T09:20:55;4.00;89.30
55785;DHT22;41709;52.536;5.688;2023-02-28T09:23:21;4.10;89.30
55785;DHT22;41709;52.536;5.688;2023-02-28T09:25:54;4.20;89.30
55785;DHT22;41709;52.536;5.688;2023-02-28T09:28:20;4.20;89.20
55785;DHT22;41709;52.536;5.688;2023-02-28T09:30:51;4.20;89.00
55785;DHT22;41709;52.536;5.688;2023-02-28T09:33:17;4.20;88.50
55785;DHT22;41709;52.536;5.688;2023-02-28T09:35:46;4.30;88.30
55785;DHT22;41709;52.536;5.688;2023-02-28T09:38:12;4.30;87.80
55785;DHT22;41709;52.536;5.688;2023-02-28T09:40:48;4.30;87.20
55785;DHT22;41709;52.536;5.688;2023-02-28T09:43:16;4.30;86.70
55785;DHT22;41709;52.536;5.688;2023-02-28T09:45:47;4.40;86.70
55785;DHT22;41709;52.536;5.688;2023-02-28T09:48:21;4.40;86.50
55785;DHT22;41709;52.536;5.688;2023-02-28T09:50:51;4.40;86.00
55785;DHT22;41709;52.536;5.688;2023-02-28T09:53:33;4.50;85.90
55785;DHT22;41709;52.536;5.688;2023-02-28T09:56:41;4.50;85.00
55785;DHT22;41709;52.536;5.688;2023-02-28T09:59:13;4.60;85.20
55785;DHT22;41709;52.536;5.688;2023-02-28T10:01:45;4.60;84.80
55785;DHT22;41709;52.536;5.688;2023-02-28T10:09:49;4.70;84.10
55785;DHT22;41709;52.536;5.688;2023-02-28T10:12:16;4.70;83.70
55785;DHT22;41709;52.536;5.688;2023-02-28T10:14:45;4.80;84.30
55785;DHT22;41709;52.536;5.688;2023-02-28T10:17:22;4.90;83.70
55785;DHT22;41709;52.536;5.688;2023-02-28T10:20:10;5.00;83.50
55785;DHT22;41709;52.536;5.688;2023-02-28T10:22:51;5.00;83.20
55785;DHT22;41709;52.536;5.688;2023-02-28T10:25:23;5.10;82.00
55785;DHT22;41709;52.536;5.688;2023-02-28T10:27:50;5.20;80.00
55785;DHT22;41709;52.536;5.688;2023-02-28T10:30:18;5.20;79.20
55785;DHT22;41709;52.536;5.688;2023-02-28T10:32:50;5.20;78.90
55785;DHT22;41709;52.536;5.688;2023-02-28T10:35:22;5.30;78.20
55785;DHT22;41709;52.536;5.688;2023-02-28T10:37:51;5.30;77.40
55785;DHT22;41709;52.536;5.688;2023-02-28T10:43:02;5.40;76.10
55785;DHT22;41709;52.536;5.688;2023-02-28T10:45:32;5.50;76.10
55785;DHT22;41709;52.536;5.688;2023-02-28T10:48:05;5.60;75.50
55785;DHT22;41709;52.536;5.688;2023-02-28T11:04:00;5.80;70.50
55785;DHT22;41709;52.536;5.688;2023-02-28T11:06:32;5.90;69.80
55785;DHT22;41709;52.536;5.688;2023-02-28T11:09:04;5.90;70.60
55785;DHT22;41709;52.536;5.688;2023-02-28T11:11:43;5.70;69.20
55785;DHT22;41709;52.536;5.688;2023-02-28T11:14:25;5.70;68.10
55785;DHT22;41709;52.536;5.688;2023-02-28T11:16:52;5.70;66.40
55785;DHT22;41709;52.536;5.688;2023-02-28T11:19:45;5.60;66.20
55785;DHT22;41709;52.536;5.688;2023-02-28T11:22:18;5.60;66.70
55785;DHT22;41709;52.536;5.688;2023-02-28T11:24:47;5.60;65.60
55785;DHT22;41709;52.536;5.688;2023-02-28T11:29:50;5.50;64.80
55785;DHT22;41709;52.536;5.688;2023-02-28T11:32:21;5.50;64.20
55785;DHT22;41709;52.536;5.688;2023-02-28T11:35:01;5.50;63.50
55785;DHT22;41709;52.536;5.688;2023-02-28T11:37:28;5.40;62.40
55785;DHT22;41709;52.536;5.688;2023-02-28T11:39:54;5.50;63.80
55785;DHT22;41709;52.536;5.688;2023-02-28T11:47:56;5.40;62.90
55785;DHT22;41709;52.536;5.688;2023-02-28T11:50:52;5.50;63.30
55785;DHT22;41709;52.536;5.688;2023-02-28T11:53:35;5.50;62.70
55785;DHT22;41709;52.536;5.688;2023-02-28T12:04:52;5.40;60.30
55785;DHT22;41709;52.536;5.688;2023-02-28T12:07:33;5.40;60.90
55785;DHT22;41709;52.536;5.688;2023-02-28T12:10:14;5.30;59.70
55785;DHT22;41709;52.536;5.688;2023-02-28T12:21:05;5.50;61.70
55785;DHT22;41709;52.536;5.688;2023-02-28T12:26:46;5.60;59.70
55785;DHT22;41709;52.536;5.688;2023-02-28T12:29:26;5.70;59.40
55785;DHT22;41709;52.536;5.688;2023-02-28T12:32:06;5.70;59.20
55785;DHT22;41709;52.536;5.688;2023-02-28T12:34:35;5.80;59.40
55785;DHT22;41709;52.536;5.688;2023-02-28T12:37:05;5.70;61.30
55785;DHT22;41709;52.536;5.688;2023-02-28T12:39:37;5.70;59.30
55785;DHT22;41709;52.536;5.688;2023-02-28T12:42:07;5.70;59.60
55785;DHT22;41709;52.536;5.688;2023-02-28T12:44:45;5.70;59.20
55785;DHT22;41709;52.536;5.688;2023-02-28T12:47:15;5.60;58.50
55785;DHT22;41709;52.536;5.688;2023-02-28T12:49:46;5.50;59.10
55785;DHT22;41709;52.536;5.688;2023-02-28T12:52:20;5.40;57.80
55785;DHT22;41709;52.536;5.688;2023-02-28T12:54:49;5.40;59.10
55785;DHT22;41709;52.536;5.688;2023-02-28T12:57:39;5.40;60.00
55785;DHT22;41709;52.536;5.688;2023-02-28T13:00:30;5.50;59.40
55785;DHT22;41709;52.536;5.688;2023-02-28T13:06:34;5.60;59.70
55785;DHT22;41709;52.536;5.688;2023-02-28T13:09:08;5.70;59.60
55785;DHT22;41709;52.536;5.688;2023-02-28T13:11:42;5.70;59.20
55785;DHT22;41709;52.536;5.688;2023-02-28T13:17:09;5.80;59.40
55785;DHT22;41709;52.536;5.688;2023-02-28T13:22:37;5.80;59.30
55785;DHT22;41709;52.536;5.688;2023-02-28T13:27:58;5.80;58.70
55785;DHT22;41709;52.536;5.688;2023-02-28T13:33:29;5.80;57.70
55785;DHT22;41709;52.536;5.688;2023-02-28T13:36:25;5.80;58.10
55785;DHT22;41709;52.536;5.688;2023-02-28T13:38:59;5.90;58.60
55785;DHT22;41709;52.536;5.688;2023-02-28T13:44:02;5.90;57.60
55785;DHT22;41709;52.536;5.688;2023-02-28T13:46:28;5.70;57.80
55785;DHT22;41709;52.536;5.688;2023-02-28T13:48:54;5.60;58.40
55785;DHT22;41709;52.536;5.688;2023-02-28T13:51:42;5.60;58.60
55785;DHT22;41709;52.536;5.688;2023-02-28T14:05:18;6.40;59.50
55785;DHT22;41709;52.536;5.688;2023-02-28T14:07:54;6.80;57.40
55785;DHT22;41709;52.536;5.688;2023-02-28T14:10:27;7.20;56.10
55785;DHT22;41709;52.536;5.688;2023-02-28T14:31:54;10.90;47.70
55785;DHT22;41709;52.536;5.688;2023-02-28T14:34:44;11.20;46.50
55785;DHT22;41709;52.536;5.688;2023-02-28T14:37:28;11.40;46.30
55785;DHT22;41709;52.536;5.688;2023-02-28T14:39:55;11.40;45.60
55785;DHT22;41709;52.536;5.688;2023-02-28T14:42:54;11.50;45.50
55785;DHT22;41709;52.536;5.688;2023-02-28T14:45:21;11.60;46.60
55785;DHT22;41709;52.536;5.688;2023-02-28T14:47:47;11.50;45.00
55785;DHT22;41709;52.536;5.688;2023-02-28T14:50:26;11.40;45.00
55785;DHT22;41709;52.536;5.688;2023-02-28T14:52:56;11.30;44.60
55785;DHT22;41709;52.536;5.688;2023-02-28T14:55:34;11.10;45.00
55785;DHT22;41709;52.536;5.688;2023-02-28T14:58:02;11.00;45.00
55785;DHT22;41709;52.536;5.688;2023-02-28T15:00:31;11.00;45.60
55785;DHT22;41709;52.536;5.688;2023-02-28T15:02:58;11.10;45.50
55785;DHT22;41709;52.536;5.688;2023-02-28T15:05:32;11.00;45.60
55785;DHT22;41709;52.536;5.688;2023-02-28T15:08:09;11.00;46.20
55785;DHT22;41709;52.536;5.688;2023-02-28T15:10:36;10.80;46.60
55785;DHT22;41709;52.536;5.688;2023-02-28T15:13:07;10.80;46.20
55785;DHT22;41709;52.536;5.688;2023-02-28T15:21:13;11.00;46.50
55785;DHT22;41709;52.536;5.688;2023-02-28T15:23:43;11.00;46.30
55785;DHT22;41709;52.536;5.688;2023-02-28T15:26:14;11.10;46.30
55785;DHT22;41709;52.536;5.688;2023-02-28T15:28:42;11.00;47.00
55785;DHT22;41709;52.536;5.688;2023-02-28T15:31:32;10.90;45.60
55785;DHT22;41709;52.536;5.688;2023-02-28T15:34:04;10.80;45.50
55785;DHT22;41709;52.536;5.688;2023-02-28T15:36:31;10.70;45.20
55785;DHT22;41709;52.536;5.688;2023-02-28T15:38:59;10.60;46.40
55785;DHT22;41709;52.536;5.688;2023-02-28T15:41:37;10.50;46.90
55785;DHT22;41709;52.536;5.688;2023-02-28T15:44:28;10.30;46.10
55785;DHT22;41709;52.536;5.688;2023-02-28T15:47:14;10.00;46.50
55785;DHT22;41709;52.536;5.688;2023-02-28T15:52:24;9.30;48.00
55785;DHT22;41709;52.536;5.688;2023-02-28T15:54:51;9.00;48.70
55785;DHT22;41709;52.536;5.688;2023-02-28T15:57:28;8.70;48.40
55785;DHT22;41709;52.536;5.688;2023-02-28T16:00:01;8.30;49.20
55785;DHT22;41709;52.536;5.688;2023-02-28T16:02:35;8.00;50.20
55785;DHT22;41709;52.536;5.688;2023-02-28T16:07:42;7.40;51.10
55785;DHT22;41709;52.536;5.688;2023-02-28T16:10:11;7.10;51.90
55785;DHT22;41709;52.536;5.688;2023-02-28T16:12:38;6.90;52.40
55785;DHT22;41709;52.536;5.688;2023-02-28T16:15:21;6.80;52.50
55785;DHT22;41709;52.536;5.688;2023-02-28T16:17:48;6.60;53.30
55785;DHT22;41709;52.536;5.688;2023-02-28T16:22:39;6.50;54.30
55785;DHT22;41709;52.536;5.688;2023-02-28T16:25:11;6.50;54.70
55785;DHT22;41709;52.536;5.688;2023-02-28T16:27:37;6.40;55.20
55785;DHT22;41709;52.536;5.688;2023-02-28T16:30:09;6.40;55.70
55785;DHT22;41709;52.536;5.688;2023-02-28T16:32:38;6.40;55.70
55785;DHT22;41709;52.536;5.688;2023-02-28T16:35:09;6.40;55.90
55785;DHT22;41709;52.536;5.688;2023-02-28T16:37:34;6.40;55.70
55785;DHT22;41709;52.536;5.688;2023-02-28T16:40:00;6.40;55.90
55785;DHT22;41709;52.536;5.688;2023-02-28T16:42:27;6.30;56.30
55785;DHT22;41709;52.536;5.688;2023-02-28T16:44:54;6.30;56.30
55785;DHT22;41709;52.536;5.688;2023-02-28T16:47:21;6.30;56.70
55785;DHT22;41709;52.536;5.688;2023-02-28T16:49:46;6.30;57.10
55785;DHT22;41709;52.536;5.688;2023-02-28T16:52:13;6.30;56.90
55785;DHT22;41709;52.536;5.688;2023-02-28T16:54:40;6.20;56.80
55785;DHT22;41709;52.536;5.688;2023-02-28T16:57:14;6.20;57.50
55785;DHT22;41709;52.536;5.688;2023-02-28T16:59:42;6.10;57.30
55785;DHT22;41709;52.536;5.688;2023-02-28T17:02:12;6.10;57.90
55785;DHT22;41709;52.536;5.688;2023-02-28T17:04:39;6.10;57.70
55785;DHT22;41709;52.536;5.688;2023-02-28T17:07:04;6.00;57.60
55785;DHT22;41709;52.536;5.688;2023-02-28T17:09:30;6.00;57.80
55785;DHT22;41709;52.536;5.688;2023-02-28T17:11:56;6.00;57.90
55785;DHT22;41709;52.536;5.688;2023-02-28T17:14:22;5.90;58.20
55785;DHT22;41709;52.536;5.688;2023-02-28T17:16:48;5.90;59.00
55785;DHT22;41709;52.536;5.688;2023-02-28T17:19:15;5.90;58.50
55785;DHT22;41709;52.536;5.688;2023-02-28T17:21:42;5.90;58.90
55785;DHT22;41709;52.536;5.688;2023-02-28T17:24:09;5.80;59.40
55785;DHT22;41709;52.536;5.688;2023-02-28T17:26:38;5.80;59.40
55785;DHT22;41709;52.536;5.688;2023-02-28T17:29:09;5.80;59.70
55785;DHT22;41709;52.536;5.688;2023-02-28T17:31:38;5.80;59.80
55785;DHT22;41709;52.536;5.688;2023-02-28T17:34:04;5.70;59.50
55785;DHT22;41709;52.536;5.688;2023-02-28T17:36:30;5.70;59.90
55785;DHT22;41709;52.536;5.688;2023-02-28T17:38:58;5.70;60.00
55785;DHT22;41709;52.536;5.688;2023-02-28T17:41:24;5.70;60.30
55785;DHT22;41709;52.536;5.688;2023-02-28T17:43:51;5.70;60.30
55785;DHT22;41709;52.536;5.688;2023-02-28T17:46:20;5.60;60.70
55785;DHT22;41709;52.536;5.688;2023-02-28T17:48:50;5.60;61.20
55785;DHT22;41709;52.536;5.688;2023-02-28T17:51:17;5.60;61.90
55785;DHT22;41709;52.536;5.688;2023-02-28T17:53:43;5.50;61.20
55785;DHT22;41709;52.536;5.688;2023-02-28T17:56:29;5.50;61.60
55785;DHT22;41709;52.536;5.688;2023-02-28T17:58:56;5.50;61.50
55785;DHT22;41709;52.536;5.688;2023-02-28T18:01:22;5.50;61.90
55785;DHT22;41709;52.536;5.688;2023-02-28T18:03:49;5.50;62.20
55785;DHT22;41709;52.536;5.688;2023-02-28T18:06:28;5.40;62.40
55785;DHT22;41709;52.536;5.688;2023-02-28T18:08:56;5.40;62.20
55785;DHT22;41709;52.536;5.688;2023-02-28T18:11:22;5.40;62.40
55785;DHT22;41709;52.536;5.688;2023-02-28T18:13:50;5.40;62.60
55785;DHT22;41709;52.536;5.688;2023-02-28T18:16:17;5.30;62.50
55785;DHT22;41709;52.536;5.688;2023-02-28T18:18:43;5.30;62.50